sensor_id;sensor_type;location;lat;lon;timestamp;temperature;humidity
77039;DHT22;65970;50.476;4.840;2023-07-29T00:03:23;22.50;39.90
77039;DHT22;65970;50.476;4.840;2023-07-29T00:08:24;22.50;39.70
77039;DHT22;65970;50.476;4.840;2023-07-29T00:13:24;22.50;38.80
77039;DHT22;65970;50.476;4.840;2023-07-29T00:18:25;22.50;39.00
77039;DHT22;65970;50.476;4.840;2023-07-29T00:23:25;22.50;38.50
77039;DHT22;65970;50.476;4.840;2023-07-29T00:28:26;22.50;37.50
77039;DHT22;65970;50.476;4.840;2023-07-29T00:33:26;22.40;36.50
77039;DHT22;65970;50.476;4.840;2023-07-29T00:38:27;22.40;37.00
77039;DHT22;65970;50.476;4.840;2023-07-29T00:43:28;22.40;37.50
77039;DHT22;65970;50.476;4.840;2023-07-29T00:48:28;22.40;37.00
77039;DHT22;65970;50.476;4.840;2023-07-29T00:53:29;22.40;37.50
77039;DHT22;65970;50.476;4.840;2023-07-29T00:58:29;22.40;37.70
77039;DHT22;65970;50.476;4.840;2023-07-29T01:03:31;22.40;37.20
77039;DHT22;65970;50.476;4.840;2023-07-29T01:08:38;22.30;38.10
77039;DHT22;65970;50.476;4.840;2023-07-29T01:13:55;22.30;37.70
77039;DHT22;65970;50.476;4.840;2023-07-29T01:19:05;22.30;38.00
77039;DHT22;65970;50.476;4.840;2023-07-29T01:24:06;22.30;37.00
77039;DHT22;65970;50.476;4.840;2023-07-29T01:29:06;22.30;36.90
77039;DHT22;65970;50.476;4.840;2023-07-29T01:34:22;22.30;37.00
77039;DHT22;65970;50.476;4.840;2023-07-29T01:39:26;22.20;37.70
77039;DHT22;65970;50.476;4.840;2023-07-29T01:44:30;22.30;36.90
77039;DHT22;65970;50.476;4.840;2023-07-29T01:49:32;22.20;36.80
77039;DHT22;65970;50.476;4.840;2023-07-29T01:54:32;22.20;37.40
77039;DHT22;65970;50.476;4.840;2023-07-29T01:59:33;22.20;37.50
77039;DHT22;65970;50.476;4.840;2023-07-29T02:04:33;22.10;37.70
77039;DHT22;65970;50.476;4.840;2023-07-29T02:09:34;22.10;37.70
77039;DHT22;65970;50.476;4.840;2023-07-29T02:14:34;22.10;37.40
77039;DHT22;65970;50.476;4.840;2023-07-29T02:19:35;22.10;37.90
77039;DHT22;65970;50.476;4.840;2023-07-29T02:24:35;22.00;37.50
77039;DHT22;65970;50.476;4.840;2023-07-29T02:29:36;22.00;38.30
77039;DHT22;65970;50.476;4.840;2023-07-29T02:34:37;22.00;38.10
77039;DHT22;65970;50.476;4.840;2023-07-29T02:39:37;22.00;38.40
77039;DHT22;65970;50.476;4.840;2023-07-29T02:44:39;22.00;38.20
77039;DHT22;65970;50.476;4.840;2023-07-29T02:49:40;21.90;38.00
77039;DHT22;65970;50.476;4.840;2023-07-29T02:54:40;21.90;37.40
77039;DHT22;65970;50.476;4.840;2023-07-29T02:59:41;21.90;38.20
77039;DHT22;65970;50.476;4.840;2023-07-29T03:04:41;21.80;38.00
77039;DHT22;65970;50.476;4.840;2023-07-29T03:09:42;21.80;38.30
77039;DHT22;65970;50.476;4.840;2023-07-29T03:14:42;21.80;38.20
77039;DHT22;65970;50.476;4.840;2023-07-29T03:19:43;21.70;38.30
77039;DHT22;65970;50.476;4.840;2023-07-29T03:24:43;21.80;38.10
77039;DHT22;65970;50.476;4.840;2023-07-29T03:29:44;21.70;37.90
77039;DHT22;65970;50.476;4.840;2023-07-29T03:34:45;21.70;38.40
77039;DHT22;65970;50.476;4.840;2023-07-29T03:39:45;21.60;38.40
77039;DHT22;65970;50.476;4.840;2023-07-29T03:44:46;21.60;38.80
77039;DHT22;65970;50.476;4.840;2023-07-29T03:49:46;21.60;38.30
77039;DHT22;65970;50.476;4.840;2023-07-29T03:54:47;21.60;38.90
77039;DHT22;65970;50.476;4.840;2023-07-29T03:59:47;21.50;39.00
77039;DHT22;65970;50.476;4.840;2023-07-29T04:04:48;21.40;38.90
77039;DHT22;65970;50.476;4.840;2023-07-29T04:09:48;21.40;39.10
77039;DHT22;65970;50.476;4.840;2023-07-29T04:14:49;21.40;38.90
77039;DHT22;65970;50.476;4.840;2023-07-29T04:19:50;21.40;38.80
77039;DHT22;65970;50.476;4.840;2023-07-29T04:24:50;21.40;38.90
77039;DHT22;65970;50.476;4.840;2023-07-29T04:29:51;21.30;38.80
77039;DHT22;65970;50.476;4.840;2023-07-29T04:34:51;21.30;39.20
77039;DHT22;65970;50.476;4.840;2023-07-29T04:39:52;21.30;39.00
77039;DHT22;65970;50.476;4.840;2023-07-29T04:44:52;21.30;38.80
77039;DHT22;65970;50.476;4.840;2023-07-29T04:49:53;21.30;37.60
77039;DHT22;65970;50.476;4.840;2023-07-29T04:54:54;21.30;38.90
77039;DHT22;65970;50.476;4.840;2023-07-29T04:59:54;21.20;39.00
77039;DHT22;65970;50.476;4.840;2023-07-29T05:04:55;21.20;38.80
77039;DHT22;65970;50.476;4.840;2023-07-29T05:09:55;21.20;38.90
77039;DHT22;65970;50.476;4.840;2023-07-29T05:14:56;21.20;38.90
77039;DHT22;65970;50.476;4.840;2023-07-29T05:19:56;21.10;39.20
77039;DHT22;65970;50.476;4.840;2023-07-29T05:24:57;21.10;38.90
77039;DHT22;65970;50.476;4.840;2023-07-29T05:29:57;21.10;39.00
77039;DHT22;65970;50.476;4.840;2023-07-29T05:34:58;21.10;38.90
77039;DHT22;65970;50.476;4.840;2023-07-29T05:39:59;21.10;38.90
77039;DHT22;65970;50.476;4.840;2023-07-29T05:44:59;21.00;38.50
77039;DHT22;65970;50.476;4.840;2023-07-29T05:50:00;21.00;38.40
77039;DHT22;65970;50.476;4.840;2023-07-29T05:55:01;21.00;38.60
77039;DHT22;65970;50.476;4.840;2023-07-29T06:00:01;21.00;38.40
77039;DHT22;65970;50.476;4.840;2023-07-29T06:05:02;21.00;38.20
77039;DHT22;65970;50.476;4.840;2023-07-29T06:10:02;21.00;38.30
77039;DHT22;65970;50.476;4.840;2023-07-29T06:15:04;21.00;38.50
77039;DHT22;65970;50.476;4.840;2023-07-29T06:20:05;20.90;38.20
77039;DHT22;65970;50.476;4.840;2023-07-29T06:25:06;20.90;38.30
77039;DHT22;65970;50.476;4.840;2023-07-29T06:30:07;20.90;37.80
77039;DHT22;65970;50.476;4.840;2023-07-29T06:35:08;20.90;37.50
77039;DHT22;65970;50.476;4.840;2023-07-29T06:40:08;20.90;36.90
77039;DHT22;65970;50.476;4.840;2023-07-29T06:45:09;20.90;37.60
77039;DHT22;65970;50.476;4.840;2023-07-29T06:50:10;21.00;38.00
77039;DHT22;65970;50.476;4.840;2023-07-29T06:55:10;20.90;38.20
77039;DHT22;65970;50.476;4.840;2023-07-29T07:00:11;20.90;38.20
77039;DHT22;65970;50.476;4.840;2023-07-29T07:05:11;20.90;37.20
77039;DHT22;65970;50.476;4.840;2023-07-29T07:10:14;20.90;37.20
77039;DHT22;65970;50.476;4.840;2023-07-29T07:15:15;20.90;37.60
77039;DHT22;65970;50.476;4.840;2023-07-29T07:20:16;20.90;36.70
77039;DHT22;65970;50.476;4.840;2023-07-29T07:25:16;21.00;36.00
77039;DHT22;65970;50.476;4.840;2023-07-29T07:30:17;20.90;37.00
77039;DHT22;65970;50.476;4.840;2023-07-29T07:35:18;21.00;37.30
77039;DHT22;65970;50.476;4.840;2023-07-29T07:40:18;21.00;36.90
77039;DHT22;65970;50.476;4.840;2023-07-29T07:45:19;21.00;41.40
77039;DHT22;65970;50.476;4.840;2023-07-29T07:50:20;21.00;42.80
77039;DHT22;65970;50.476;4.840;2023-07-29T07:55:20;20.90;43.80
77039;DHT22;65970;50.476;4.840;2023-07-29T08:00:21;20.90;44.50
77039;DHT22;65970;50.476;4.840;2023-07-29T08:05:21;21.00;44.10
77039;DHT22;65970;50.476;4.840;2023-07-29T08:10:22;21.00;45.80
77039;DHT22;65970;50.476;4.840;2023-07-29T08:15:22;21.00;44.80
77039;DHT22;65970;50.476;4.840;2023-07-29T08:20:23;21.20;49.70
77039;DHT22;65970;50.476;4.840;2023-07-29T08:25:24;21.10;50.60
77039;DHT22;65970;50.476;4.840;2023-07-29T08:30:24;21.10;49.80
77039;DHT22;65970;50.476;4.840;2023-07-29T08:35:25;21.10;49.20
77039;DHT22;65970;50.476;4.840;2023-07-29T08:40:27;21.10;48.90
77039;DHT22;65970;50.476;4.840;2023-07-29T08:45:33;21.20;48.60
77039;DHT22;65970;50.476;4.840;2023-07-29T08:50:36;21.20;48.30
77039;DHT22;65970;50.476;4.840;2023-07-29T08:55:39;21.30;47.40
77039;DHT22;65970;50.476;4.840;2023-07-29T09:00:40;21.30;47.00
77039;DHT22;65970;50.476;4.840;2023-07-29T09:05:40;21.40;46.90
77039;DHT22;65970;50.476;4.840;2023-07-29T09:10:41;21.50;46.30
77039;DHT22;65970;50.476;4.840;2023-07-29T09:15:42;21.50;45.90
77039;DHT22;65970;50.476;4.840;2023-07-29T09:20:43;21.70;46.20
77039;DHT22;65970;50.476;4.840;2023-07-29T09:25:46;21.80;43.90
77039;DHT22;65970;50.476;4.840;2023-07-29T09:30:47;21.90;42.50
77039;DHT22;65970;50.476;4.840;2023-07-29T09:35:47;22.00;41.70
77039;DHT22;65970;50.476;4.840;2023-07-29T09:41:47;22.10;41.40
77039;DHT22;65970;50.476;4.840;2023-07-29T09:46:48;22.20;39.60
77039;DHT22;65970;50.476;4.840;2023-07-29T09:51:48;22.30;38.20
77039;DHT22;65970;50.476;4.840;2023-07-29T09:56:49;22.40;39.00
77039;DHT22;65970;50.476;4.840;2023-07-29T10:01:50;22.50;37.90
77039;DHT22;65970;50.476;4.840;2023-07-29T10:06:52;22.60;37.70
77039;DHT22;65970;50.476;4.840;2023-07-29T10:11:53;22.70;37.50
77039;DHT22;65970;50.476;4.840;2023-07-29T10:16:55;22.80;37.20
77039;DHT22;65970;50.476;4.840;2023-07-29T10:21:59;22.80;36.80
77039;DHT22;65970;50.476;4.840;2023-07-29T10:27:01;22.80;36.70
77039;DHT22;65970;50.476;4.840;2023-07-29T10:32:02;22.90;36.90
77039;DHT22;65970;50.476;4.840;2023-07-29T10:37:04;22.90;37.00
77039;DHT22;65970;50.476;4.840;2023-07-29T10:42:06;22.90;36.50
77039;DHT22;65970;50.476;4.840;2023-07-29T10:47:14;23.00;36.40
77039;DHT22;65970;50.476;4.840;2023-07-29T10:52:16;23.10;36.20
77039;DHT22;65970;50.476;4.840;2023-07-29T10:57:31;23.10;36.20
77039;DHT22;65970;50.476;4.840;2023-07-29T11:02:37;23.20;36.50
77039;DHT22;65970;50.476;4.840;2023-07-29T11:07:48;23.30;36.40
77039;DHT22;65970;50.476;4.840;2023-07-29T11:12:50;23.30;36.50
77039;DHT22;65970;50.476;4.840;2023-07-29T11:17:56;23.30;36.20
77039;DHT22;65970;50.476;4.840;2023-07-29T11:22:58;23.30;36.70
77039;DHT22;65970;50.476;4.840;2023-07-29T11:28:00;23.30;36.50
77039;DHT22;65970;50.476;4.840;2023-07-29T11:33:00;23.20;37.10
77039;DHT22;65970;50.476;4.840;2023-07-29T11:38:01;23.20;37.10
77039;DHT22;65970;50.476;4.840;2023-07-29T11:43:01;23.20;37.30
77039;DHT22;65970;50.476;4.840;2023-07-29T11:48:02;23.20;37.00
77039;DHT22;65970;50.476;4.840;2023-07-29T11:53:02;23.20;36.80
77039;DHT22;65970;50.476;4.840;2023-07-29T11:58:04;23.10;36.80
77039;DHT22;65970;50.476;4.840;2023-07-29T12:03:05;23.10;36.80
77039;DHT22;65970;50.476;4.840;2023-07-29T12:08:05;23.20;37.60
77039;DHT22;65970;50.476;4.840;2023-07-29T12:13:08;23.20;36.90
77039;DHT22;65970;50.476;4.840;2023-07-29T12:18:09;23.20;37.00
77039;DHT22;65970;50.476;4.840;2023-07-29T12:23:09;23.20;37.20
77039;DHT22;65970;50.476;4.840;2023-07-29T12:28:10;23.30;36.90
77039;DHT22;65970;50.476;4.840;2023-07-29T12:33:10;23.40;36.70
77039;DHT22;65970;50.476;4.840;2023-07-29T12:38:11;23.40;36.80
77039;DHT22;65970;50.476;4.840;2023-07-29T12:43:11;23.50;37.20
77039;DHT22;65970;50.476;4.840;2023-07-29T12:48:12;23.50;37.10
77039;DHT22;65970;50.476;4.840;2023-07-29T12:53:12;23.50;36.90
77039;DHT22;65970;50.476;4.840;2023-07-29T12:58:13;23.60;36.70
77039;DHT22;65970;50.476;4.840;2023-07-29T13:03:13;23.60;36.70
77039;DHT22;65970;50.476;4.840;2023-07-29T13:08:14;23.60;36.00
77039;DHT22;65970;50.476;4.840;2023-07-29T13:13:14;23.70;36.00
77039;DHT22;65970;50.476;4.840;2023-07-29T13:18:15;23.70;35.90
77039;DHT22;65970;50.476;4.840;2023-07-29T13:23:16;23.70;36.00
77039;DHT22;65970;50.476;4.840;2023-07-29T13:28:16;23.70;35.70
77039;DHT22;65970;50.476;4.840;2023-07-29T13:33:17;23.80;35.90
77039;DHT22;65970;50.476;4.840;2023-07-29T13:38:17;23.80;35.50
77039;DHT22;65970;50.476;4.840;2023-07-29T13:43:18;23.90;35.70
77039;DHT22;65970;50.476;4.840;2023-07-29T13:48:19;23.90;35.40
77039;DHT22;65970;50.476;4.840;2023-07-29T13:53:19;24.00;35.40
77039;DHT22;65970;50.476;4.840;2023-07-29T13:58:20;24.00;35.20
77039;DHT22;65970;50.476;4.840;2023-07-29T14:03:20;24.00;35.20
77039;DHT22;65970;50.476;4.840;2023-07-29T14:08:21;24.10;33.70
77039;DHT22;65970;50.476;4.840;2023-07-29T14:13:22;24.10;35.10
77039;DHT22;65970;50.476;4.840;2023-07-29T14:18:22;24.20;33.90
77039;DHT22;65970;50.476;4.840;2023-07-29T14:23:23;24.20;34.80
77039;DHT22;65970;50.476;4.840;2023-07-29T14:28:23;24.30;34.70
77039;DHT22;65970;50.476;4.840;2023-07-29T14:33:24;24.30;34.70
77039;DHT22;65970;50.476;4.840;2023-07-29T14:38:24;24.30;34.60
77039;DHT22;65970;50.476;4.840;2023-07-29T14:43:25;24.30;34.60
77039;DHT22;65970;50.476;4.840;2023-07-29T14:48:26;24.30;34.50
77039;DHT22;65970;50.476;4.840;2023-07-29T14:53:26;24.30;34.60
77039;DHT22;65970;50.476;4.840;2023-07-29T14:58:27;24.40;34.50
77039;DHT22;65970;50.476;4.840;2023-07-29T15:03:27;24.40;34.60
77039;DHT22;65970;50.476;4.840;2023-07-29T15:08:28;24.40;34.30
77039;DHT22;65970;50.476;4.840;2023-07-29T15:13:28;24.40;34.10
77039;DHT22;65970;50.476;4.840;2023-07-29T15:18:29;24.40;33.70
77039;DHT22;65970;50.476;4.840;2023-07-29T15:23:29;24.40;33.90
77039;DHT22;65970;50.476;4.840;2023-07-29T15:28:30;24.50;34.00
77039;DHT22;65970;50.476;4.840;2023-07-29T15:33:30;24.40;33.60
77039;DHT22;65970;50.476;4.840;2023-07-29T15:38:31;24.40;33.60
77039;DHT22;65970;50.476;4.840;2023-07-29T15:43:32;24.50;33.90
77039;DHT22;65970;50.476;4.840;2023-07-29T15:48:32;24.50;33.70
77039;DHT22;65970;50.476;4.840;2023-07-29T15:53:33;24.40;33.50
77039;DHT22;65970;50.476;4.840;2023-07-29T15:58:33;24.40;33.40
77039;DHT22;65970;50.476;4.840;2023-07-29T16:03:34;24.50;33.70
77039;DHT22;65970;50.476;4.840;2023-07-29T16:08:34;24.40;33.70
77039;DHT22;65970;50.476;4.840;2023-07-29T16:13:35;24.40;33.90
77039;DHT22;65970;50.476;4.840;2023-07-29T16:18:35;24.50;33.90
77039;DHT22;65970;50.476;4.840;2023-07-29T16:23:36;24.50;33.90
77039;DHT22;65970;50.476;4.840;2023-07-29T16:28:37;24.50;34.00
77039;DHT22;65970;50.476;4.840;2023-07-29T16:33:37;24.50;33.90
77039;DHT22;65970;50.476;4.840;2023-07-29T16:38:38;24.50;33.70
77039;DHT22;65970;50.476;4.840;2023-07-29T16:43:38;24.60;33.80
77039;DHT22;65970;50.476;4.840;2023-07-29T16:48:39;24.60;32.70
77039;DHT22;65970;50.476;4.840;2023-07-29T16:53:39;24.60;33.50
77039;DHT22;65970;50.476;4.840;2023-07-29T16:58:40;24.60;33.50
77039;DHT22;65970;50.476;4.840;2023-07-29T17:03:40;24.60;33.50
77039;DHT22;65970;50.476;4.840;2023-07-29T17:08:41;24.50;33.40
77039;DHT22;65970;50.476;4.840;2023-07-29T17:13:41;24.50;33.50
77039;DHT22;65970;50.476;4.840;2023-07-29T17:18:42;24.50;33.30
77039;DHT22;65970;50.476;4.840;2023-07-29T17:23:43;24.50;33.40
77039;DHT22;65970;50.476;4.840;2023-07-29T17:28:43;24.50;33.60
77039;DHT22;65970;50.476;4.840;2023-07-29T17:33:44;24.40;33.30
77039;DHT22;65970;50.476;4.840;2023-07-29T17:38:44;24.40;33.40
77039;DHT22;65970;50.476;4.840;2023-07-29T17:43:45;24.40;33.10
77039;DHT22;65970;50.476;4.840;2023-07-29T17:48:46;24.40;33.20
77039;DHT22;65970;50.476;4.840;2023-07-29T17:53:46;24.40;33.20
77039;DHT22;65970;50.476;4.840;2023-07-29T17:58:47;24.40;32.80
77039;DHT22;65970;50.476;4.840;2023-07-29T18:03:47;24.30;32.00
77039;DHT22;65970;50.476;4.840;2023-07-29T18:08:48;24.30;32.80
77039;DHT22;65970;50.476;4.840;2023-07-29T18:13:48;24.30;32.30
77039;DHT22;65970;50.476;4.840;2023-07-29T18:18:49;24.30;32.50
77039;DHT22;65970;50.476;4.840;2023-07-29T18:23:50;24.20;32.10
77039;DHT22;65970;50.476;4.840;2023-07-29T18:28:50;24.20;31.50
77039;DHT22;65970;50.476;4.840;2023-07-29T18:33:51;24.20;30.90
77039;DHT22;65970;50.476;4.840;2023-07-29T18:38:51;24.10;30.90
77039;DHT22;65970;50.476;4.840;2023-07-29T18:43:52;24.10;30.20
77039;DHT22;65970;50.476;4.840;2023-07-29T18:48:53;24.00;30.10
77039;DHT22;65970;50.476;4.840;2023-07-29T18:53:53;24.00;30.00
77039;DHT22;65970;50.476;4.840;2023-07-29T18:58:54;23.90;30.10
77039;DHT22;65970;50.476;4.840;2023-07-29T19:03:54;23.90;30.30
77039;DHT22;65970;50.476;4.840;2023-07-29T19:08:55;23.80;29.80
77039;DHT22;65970;50.476;4.840;2023-07-29T19:13:55;23.80;29.70
77039;DHT22;65970;50.476;4.840;2023-07-29T19:18:56;23.70;29.40
77039;DHT22;65970;50.476;4.840;2023-07-29T19:23:56;23.70;29.60
77039;DHT22;65970;50.476;4.840;2023-07-29T19:28:57;23.60;29.40
77039;DHT22;65970;50.476;4.840;2023-07-29T19:33:58;23.60;29.50
77039;DHT22;65970;50.476;4.840;2023-07-29T19:38:58;23.60;29.50
77039;DHT22;65970;50.476;4.840;2023-07-29T19:43:59;23.50;29.60
77039;DHT22;65970;50.476;4.840;2023-07-29T19:49:00;23.50;29.50
77039;DHT22;65970;50.476;4.840;2023-07-29T19:54:00;23.40;29.60
77039;DHT22;65970;50.476;4.840;2023-07-29T19:59:01;23.40;29.70
77039;DHT22;65970;50.476;4.840;2023-07-29T20:04:01;23.30;29.70
77039;DHT22;65970;50.476;4.840;2023-07-29T20:09:02;23.30;29.70
77039;DHT22;65970;50.476;4.840;2023-07-29T20:14:02;23.30;29.90
77039;DHT22;65970;50.476;4.840;2023-07-29T20:19:03;23.20;30.00
77039;DHT22;65970;50.476;4.840;2023-07-29T20:24:03;23.20;29.80
77039;DHT22;65970;50.476;4.840;2023-07-29T20:29:04;23.10;30.00
77039;DHT22;65970;50.476;4.840;2023-07-29T20:34:04;23.10;29.90
77039;DHT22;65970;50.476;4.840;2023-07-29T20:39:05;23.00;30.00
77039;DHT22;65970;50.476;4.840;2023-07-29T20:44:06;23.00;29.80
77039;DHT22;65970;50.476;4.840;2023-07-29T20:49:06;23.00;29.80
77039;DHT22;65970;50.476;4.840;2023-07-29T20:54:07;22.90;29.60
77039;DHT22;65970;50.476;4.840;2023-07-29T20:59:08;22.90;28.80
77039;DHT22;65970;50.476;4.840;2023-07-29T21:04:08;22.80;28.90
77039;DHT22;65970;50.476;4.840;2023-07-29T21:09:09;22.80;29.00
77039;DHT22;65970;50.476;4.840;2023-07-29T21:14:09;22.70;28.40
77039;DHT22;65970;50.476;4.840;2023-07-29T21:19:10;22.70;28.60
77039;DHT22;65970;50.476;4.840;2023-07-29T21:24:10;22.70;27.90
77039;DHT22;65970;50.476;4.840;2023-07-29T21:29:11;22.60;27.90
77039;DHT22;65970;50.476;4.840;2023-07-29T21:34:11;22.50;28.40
77039;DHT22;65970;50.476;4.840;2023-07-29T21:39:12;22.50;28.30
77039;DHT22;65970;50.476;4.840;2023-07-29T21:44:12;22.40;28.30
77039;DHT22;65970;50.476;4.840;2023-07-29T21:49:13;22.40;28.50
77039;DHT22;65970;50.476;4.840;2023-07-29T21:54:13;22.30;28.20
77039;DHT22;65970;50.476;4.840;2023-07-29T21:59:14;22.30;28.70
77039;DHT22;65970;50.476;4.840;2023-07-29T22:04:15;22.30;28.90
77039;DHT22;65970;50.476;4.840;2023-07-29T22:09:15;22.20;28.80
77039;DHT22;65970;50.476;4.840;2023-07-29T22:14:16;22.10;28.80
77039;DHT22;65970;50.476;4.840;2023-07-29T22:19:16;22.10;28.40
77039;DHT22;65970;50.476;4.840;2023-07-29T22:24:17;22.00;28.20
77039;DHT22;65970;50.476;4.840;2023-07-29T22:29:18;22.00;28.10
77039;DHT22;65970;50.476;4.840;2023-07-29T22:34:18;22.00;28.10
77039;DHT22;65970;50.476;4.840;2023-07-29T22:39:19;21.90;28.10
77039;DHT22;65970;50.476;4.840;2023-07-29T22:44:20;21.90;28.30
77039;DHT22;65970;50.476;4.840;2023-07-29T22:49:20;21.80;28.30
77039;DHT22;65970;50.476;4.840;2023-07-29T22:54:21;21.80;28.20
77039;DHT22;65970;50.476;4.840;2023-07-29T22:59:21;21.80;28.00
77039;DHT22;65970;50.476;4.840;2023-07-29T23:04:22;21.70;28.00
77039;DHT22;65970;50.476;4.840;2023-07-29T23:09:22;21.70;28.50
77039;DHT22;65970;50.476;4.840;2023-07-29T23:14:24;21.60;28.60
77039;DHT22;65970;50.476;4.840;2023-07-29T23:19:25;21.60;28.70
77039;DHT22;65970;50.476;4.840;2023-07-29T23:24:26;21.50;28.40
77039;DHT22;65970;50.476;4.840;2023-07-29T23:29:26;21.50;28.60
77039;DHT22;65970;50.476;4.840;2023-07-29T23:34:27;21.50;28.80
77039;DHT22;65970;50.476;4.840;2023-07-29T23:39:27;21.40;28.80
77039;DHT22;65970;50.476;4.840;2023-07-29T23:44:28;21.40;28.90
77039;DHT22;65970;50.476;4.840;2023-07-29T23:49:28;21.30;29.00
77039;DHT22;65970;50.476;4.840;2023-07-29T23:54:29;21.30;29.00
77039;DHT22;65970;50.476;4.840;2023-07-29T23:59:29;21.30;29.20
